createdAt,value
2018-01-05T00:00:34.702Z,85.64
2018-01-05T00:03:02.496Z,85.84
2018-01-05T00:05:30.099Z,85.65
2018-01-05T00:07:57.831Z,85.63
2018-01-05T00:10:25.462Z,85.93
2018-01-05T00:12:53.226Z,85.97
2018-01-05T00:15:20.886Z,85.99
2018-01-05T00:17:48.704Z,86.13
2018-01-05T00:20:16.268Z,86.20
2018-01-05T00:22:44.040Z,86.01
2018-01-05T00:25:11.750Z,86.22
2018-01-05T00:27:39.313Z,86.42
2018-01-05T00:30:06.934Z,86.38
2018-01-05T00:32:34.812Z,86.38
2018-01-05T00:35:02.382Z,86.47
2018-01-05T00:37:29.941Z,86.78
2018-01-05T00:39:57.551Z,86.76
2018-01-05T00:42:25.284Z,86.52
2018-01-05T00:44:52.850Z,86.68
2018-01-05T00:47:20.461Z,86.67
2018-01-05T00:49:48.241Z,86.07
2018-01-05T00:52:15.936Z,86.44
2018-01-05T00:54:43.535Z,86.40
2018-01-05T00:57:11.096Z,86.48
2018-01-05T00:59:38.658Z,86.57
2018-01-05T01:02:06.601Z,87.08
2018-01-05T01:04:34.317Z,86.66
2018-01-05T01:07:01.910Z,86.80
2018-01-05T01:09:29.515Z,87.02
2018-01-05T01:11:57.302Z,87.19
2018-01-05T01:14:25.119Z,87.26
2018-01-05T01:16:52.872Z,87.23
2018-01-05T01:19:20.452Z,87.02
2018-01-05T01:21:48.176Z,86.98
2018-01-05T01:24:15.892Z,86.86
2018-01-05T01:26:43.455Z,86.64
2018-01-05T01:29:11.228Z,86.86
2018-01-05T01:31:38.853Z,87.31
2018-01-05T01:34:06.666Z,87.26
2018-01-05T01:36:34.483Z,87.35
2018-01-05T01:39:02.110Z,87.29
2018-01-05T01:41:29.675Z,87.14
2018-01-05T01:43:57.242Z,86.96
2018-01-05T01:46:24.926Z,86.94
2018-01-05T01:48:52.482Z,87.06
2018-01-05T01:51:20.046Z,86.33
2018-01-05T01:53:47.900Z,86.32
2018-01-05T01:56:15.474Z,86.52
2018-01-05T01:58:43.038Z,86.15
2018-01-05T02:01:10.968Z,86.06
2018-01-05T02:03:38.537Z,86.19
2018-01-05T02:06:06.270Z,86.40
2018-01-05T02:08:33.894Z,86.40
2018-01-05T02:11:01.635Z,86.55
2018-01-05T02:13:29.190Z,86.52
2018-01-05T02:15:56.807Z,86.06
2018-01-05T02:18:24.376Z,85.85
2018-01-05T02:20:51.942Z,85.40
2018-01-05T02:23:19.674Z,85.28
2018-01-05T02:25:47.444Z,85.27
2018-01-05T02:28:15.011Z,85.54
2018-01-05T02:30:42.656Z,85.79
2018-01-05T02:33:10.373Z,86.49
2018-01-05T02:35:38.089Z,86.79
2018-01-05T02:38:05.935Z,86.59
2018-01-05T02:40:33.499Z,86.63
2018-01-05T02:43:01.238Z,86.86
2018-01-05T02:45:28.845Z,86.89
2018-01-05T02:47:56.570Z,86.92
2018-01-05T02:50:24.110Z,87.16
2018-01-05T02:52:51.943Z,86.92
2018-01-05T02:55:19.552Z,86.90
2018-01-05T02:57:47.130Z,86.84
2018-01-05T03:00:14.846Z,86.73
2018-01-05T03:02:42.406Z,86.45
2018-01-05T03:05:10.131Z,86.83
2018-01-05T03:07:37.846Z,87.01
2018-01-05T03:10:05.410Z,87.25
2018-01-05T03:12:33.010Z,87.11
2018-01-05T03:15:00.773Z,86.89
2018-01-05T03:17:28.339Z,86.99
2018-01-05T03:19:55.904Z,87.26
2018-01-05T03:22:23.758Z,87.43
2018-01-05T03:24:51.318Z,87.84
2018-01-05T03:27:19.094Z,88.09
2018-01-05T03:29:47.013Z,87.72
2018-01-05T03:32:14.574Z,87.42
2018-01-05T03:34:42.349Z,87.13
2018-01-05T03:37:10.116Z,87.04
2018-01-05T03:39:37.680Z,87.04
2018-01-05T03:42:05.245Z,86.91
2018-01-05T03:44:32.858Z,86.59
2018-01-05T03:47:00.640Z,86.94
2018-01-05T03:49:28.206Z,87.60
2018-01-05T03:51:55.921Z,87.81
2018-01-05T03:54:23.585Z,87.38
2018-01-05T03:56:51.220Z,87.59
2018-01-05T03:59:18.825Z,87.41
2018-01-05T04:01:46.547Z,87.58
2018-01-05T04:04:15.169Z,88.19
2018-01-05T04:06:42.856Z,88.76
2018-01-05T04:09:10.414Z,88.57
2018-01-05T04:11:38.223Z,86.67
2018-01-05T04:14:06.056Z,85.72
2018-01-05T04:16:33.625Z,85.58
2018-01-05T04:19:01.379Z,86.64
2018-01-05T04:21:29.004Z,87.02
2018-01-05T04:23:56.814Z,86.66
2018-01-05T04:26:24.533Z,86.75
2018-01-05T04:28:52.351Z,87.08
2018-01-05T04:31:20.169Z,87.77
2018-01-05T04:33:47.745Z,87.56
2018-01-05T04:36:15.372Z,87.34
2018-01-05T04:38:43.097Z,87.56
2018-01-05T04:41:10.658Z,87.88
2018-01-05T04:43:38.452Z,88.04
2018-01-05T04:46:06.022Z,88.29
2018-01-05T04:48:33.795Z,88.21
2018-01-05T04:51:01.413Z,88.17
2018-01-05T04:53:28.985Z,88.34
2018-01-05T04:55:56.548Z,88.52
2018-01-05T04:58:24.249Z,89.12
2018-01-05T05:00:51.827Z,89.17
2018-01-05T05:03:19.387Z,88.97
2018-01-05T05:05:47.070Z,88.72
2018-01-05T05:08:14.838Z,88.12
2018-01-05T05:10:42.557Z,87.47
2018-01-05T05:13:10.172Z,87.64
2018-01-05T05:15:37.774Z,87.53
2018-01-05T05:18:05.330Z,87.45
2018-01-05T05:20:33.129Z,87.38
2018-01-05T05:23:00.694Z,87.81
2018-01-05T05:25:28.565Z,87.88
2018-01-05T05:27:56.385Z,88.08
2018-01-05T05:30:24.103Z,88.07
2018-01-05T05:32:51.662Z,88.09
2018-01-05T05:35:19.270Z,88.09
2018-01-05T05:37:46.846Z,88.19
2018-01-05T05:40:14.464Z,88.26
2018-01-05T05:42:42.062Z,88.20
2018-01-05T05:45:09.701Z,88.19
2018-01-05T05:47:37.261Z,88.07
2018-01-05T05:50:05.272Z,88.01
2018-01-05T05:52:32.847Z,88.11
2018-01-05T05:55:00.433Z,87.80
2018-01-05T05:57:28.201Z,87.82
2018-01-05T05:59:55.757Z,87.81
2018-01-05T06:02:23.318Z,87.36
2018-01-05T06:04:50.943Z,86.80
2018-01-05T06:07:18.651Z,86.18
2018-01-05T06:09:46.214Z,86.66
2018-01-05T06:12:14.108Z,86.75
2018-01-05T06:14:41.716Z,86.13
2018-01-05T06:17:09.346Z,85.88
2018-01-05T06:19:36.961Z,85.60
2018-01-05T06:22:04.534Z,86.29
2018-01-05T06:24:32.180Z,86.58
2018-01-05T06:26:59.794Z,85.56
2018-01-05T06:29:27.534Z,85.13
2018-01-05T06:31:55.120Z,85.27
2018-01-05T06:34:22.741Z,84.86
2018-01-05T06:36:50.487Z,84.67
2018-01-05T06:39:18.046Z,84.30
2018-01-05T06:41:46.003Z,83.81
2018-01-05T06:44:13.658Z,84.16
2018-01-05T06:46:41.250Z,84.15
2018-01-05T06:49:08.948Z,84.32
2018-01-05T06:51:36.696Z,84.47
2018-01-05T06:54:04.268Z,84.13
2018-01-05T06:56:31.882Z,83.85
2018-01-05T06:58:59.446Z,83.68
2018-01-05T07:01:27.168Z,82.66
2018-01-05T07:03:54.762Z,82.15
2018-01-05T07:06:22.322Z,82.17
2018-01-05T07:08:50.122Z,81.68
2018-01-05T07:11:17.940Z,81.35
2018-01-05T07:13:45.502Z,81.08
2018-01-05T07:16:13.076Z,80.35
2018-01-05T07:18:40.689Z,79.82
2018-01-05T07:21:08.245Z,80.58
2018-01-05T07:23:35.806Z,91.97
2018-01-05T07:26:03.422Z,91.12
2018-01-05T07:28:31.000Z,67.96
2018-01-05T07:30:58.578Z,58.95
2018-01-05T07:33:26.401Z,57.14
2018-01-05T07:35:53.962Z,51.95
2018-01-05T07:38:21.623Z,51.67
2018-01-05T07:40:49.455Z,46.21
2018-01-05T07:43:17.274Z,45.68
2018-01-05T07:45:45.092Z,43.02
2018-01-05T07:48:12.718Z,40.72
2018-01-05T07:50:40.529Z,41.20
2018-01-05T07:53:08.090Z,43.50
2018-01-05T07:55:35.941Z,43.67
2018-01-05T07:58:03.656Z,41.97
2018-01-05T08:00:31.300Z,40.93
2018-01-05T08:02:58.910Z,39.73
2018-01-05T08:05:26.478Z,38.68
2018-01-05T08:07:54.042Z,39.67
2018-01-05T08:10:21.659Z,38.73
2018-01-05T08:12:49.392Z,38.00
2018-01-05T08:15:17.001Z,35.34
2018-01-05T08:17:44.634Z,34.54
2018-01-05T08:20:12.345Z,34.58
2018-01-05T08:22:39.914Z,34.21
2018-01-05T08:25:07.781Z,33.24
2018-01-05T08:27:35.391Z,34.32
2018-01-05T08:30:03.217Z,34.05
2018-01-05T08:32:30.859Z,32.22
2018-01-05T08:34:58.509Z,32.01
2018-01-05T08:37:26.054Z,33.24
2018-01-05T08:39:53.990Z,30.68
2018-01-05T08:42:21.562Z,30.45
2018-01-05T08:44:49.119Z,30.38
2018-01-05T08:47:16.888Z,31.57
2018-01-05T08:49:44.628Z,30.54
2018-01-05T08:52:12.191Z,31.06
2018-01-05T08:54:39.822Z,32.45
2018-01-05T08:57:07.385Z,31.45
2018-01-05T08:59:34.943Z,31.96
2018-01-05T09:02:02.713Z,31.11
2018-01-05T09:04:30.278Z,32.07
2018-01-05T09:06:57.887Z,32.32
2018-01-05T09:09:25.711Z,32.25
2018-01-05T09:11:53.295Z,32.03
2018-01-05T09:14:20.862Z,33.63
2018-01-05T09:16:48.481Z,33.57
2018-01-05T09:19:16.065Z,32.61
2018-01-05T09:21:43.896Z,34.51
2018-01-05T09:24:11.525Z,33.64
2018-01-05T09:26:39.224Z,33.55
2018-01-05T09:29:06.788Z,33.34
2018-01-05T09:31:34.458Z,33.93
2018-01-05T09:34:02.026Z,34.11
2018-01-05T09:36:29.575Z,35.20
2018-01-05T09:38:57.202Z,32.96
2018-01-05T09:41:24.756Z,33.72
2018-01-05T09:43:52.362Z,34.10
2018-01-05T09:46:20.038Z,34.15
2018-01-05T09:48:47.754Z,33.99
2018-01-05T09:51:15.472Z,32.73
2018-01-05T09:53:43.102Z,33.96
2018-01-05T09:56:10.674Z,34.64
2018-01-05T09:58:38.247Z,34.19
2018-01-05T10:01:06.083Z,33.74
2018-01-05T10:03:33.692Z,33.48
2018-01-05T10:06:01.420Z,32.29
2018-01-05T10:08:29.039Z,30.46
2018-01-05T10:10:56.626Z,30.63
2018-01-05T10:13:24.346Z,32.33
2018-01-05T10:15:52.183Z,32.67
2018-01-05T10:18:19.778Z,34.53
2018-01-05T10:20:47.358Z,33.93
2018-01-05T10:23:14.986Z,32.54
2018-01-05T10:25:42.614Z,32.92
2018-01-05T10:28:10.273Z,31.38
2018-01-05T10:30:37.921Z,30.67
2018-01-05T10:33:05.517Z,32.10
2018-01-05T10:35:33.063Z,29.46
2018-01-05T10:38:00.744Z,27.87
2018-01-05T10:40:28.377Z,29.60
2018-01-05T10:42:55.939Z,29.71
2018-01-05T10:45:23.623Z,29.93
2018-01-05T10:47:51.276Z,29.60
2018-01-05T10:50:18.827Z,30.02
2018-01-05T10:52:46.444Z,29.81
2018-01-05T10:55:14.157Z,28.17
2018-01-05T10:57:41.872Z,29.00
2018-01-05T11:00:09.477Z,28.23
2018-01-05T11:02:37.038Z,26.02
2018-01-05T11:05:04.594Z,26.79
2018-01-05T11:07:32.372Z,27.22
2018-01-05T11:10:00.091Z,27.88
2018-01-05T11:12:27.905Z,28.09
2018-01-05T11:14:55.522Z,29.26
2018-01-05T11:17:23.077Z,30.56
2018-01-05T11:19:50.638Z,32.65
2018-01-05T11:22:18.248Z,31.19
2018-01-05T11:24:45.812Z,33.67
2018-01-05T11:27:13.405Z,31.01
2018-01-05T11:29:41.233Z,31.77
2018-01-05T11:32:08.798Z,33.21
2018-01-05T11:34:36.358Z,34.10
2018-01-05T11:37:04.026Z,34.33
2018-01-05T11:39:31.779Z,33.25
2018-01-05T11:41:59.497Z,34.99
2018-01-05T11:44:27.440Z,36.61
2018-01-05T11:46:55.258Z,35.45
2018-01-05T11:49:22.947Z,36.57
2018-01-05T11:51:50.564Z,35.87
2018-01-05T11:54:18.123Z,36.07
2018-01-05T11:56:45.930Z,36.11
2018-01-05T11:59:13.753Z,34.66
2018-01-05T12:01:41.567Z,34.64
2018-01-05T12:04:09.178Z,36.25
2018-01-05T12:06:37.200Z,36.38
2018-01-05T12:09:04.848Z,39.24
2018-01-05T12:11:32.701Z,37.09
2018-01-05T12:14:00.446Z,38.38
2018-01-05T12:16:28.009Z,36.91
2018-01-05T12:18:55.614Z,37.26
2018-01-05T12:21:23.318Z,37.60
2018-01-05T12:23:51.023Z,38.57
2018-01-05T12:26:18.579Z,41.09
2018-01-05T12:28:46.367Z,42.06
2018-01-05T12:31:14.286Z,42.94
2018-01-05T12:33:41.856Z,43.33
2018-01-05T12:36:09.576Z,41.76
2018-01-05T12:38:37.240Z,40.48
2018-01-05T12:41:04.803Z,41.14
2018-01-05T12:43:32.677Z,40.43
2018-01-05T12:46:00.286Z,38.88
2018-01-05T12:48:27.868Z,38.89
2018-01-05T12:50:55.521Z,39.97
2018-01-05T12:53:23.249Z,39.54
2018-01-05T12:55:51.067Z,40.62
2018-01-05T12:58:19.086Z,45.60
2018-01-05T13:00:46.905Z,45.76
2018-01-05T13:03:14.513Z,43.57
2018-01-05T13:05:42.342Z,44.08
2018-01-05T13:08:09.909Z,44.31
2018-01-05T13:10:37.468Z,45.77
2018-01-05T13:13:05.139Z,45.82
2018-01-05T13:15:32.914Z,46.74
2018-01-05T13:18:00.732Z,47.87
2018-01-05T13:20:28.351Z,46.88
2018-01-05T13:22:56.126Z,45.64
2018-01-05T13:25:23.776Z,46.30
2018-01-05T13:27:51.708Z,44.98
2018-01-05T13:30:19.316Z,45.58
2018-01-05T13:32:46.895Z,46.22
2018-01-05T13:35:14.491Z,46.93
2018-01-05T13:37:42.070Z,48.68
2018-01-05T13:40:09.726Z,51.35
2018-01-05T13:42:37.291Z,51.64
2018-01-05T13:45:04.883Z,52.91
2018-01-05T13:47:32.649Z,53.31
2018-01-05T13:50:00.261Z,54.60
2018-01-05T13:52:28.084Z,55.55
2018-01-05T13:54:55.673Z,56.03
2018-01-05T13:57:23.246Z,56.55
2018-01-05T13:59:50.832Z,56.80
2018-01-05T14:02:18.556Z,56.05
2018-01-05T14:04:46.188Z,54.20
2018-01-05T14:07:13.986Z,51.05
2018-01-05T14:09:41.558Z,49.23
2018-01-05T14:12:09.329Z,47.30
2018-01-05T14:14:37.068Z,46.50
2018-01-05T14:17:04.724Z,46.07
2018-01-05T14:19:32.487Z,47.12
2018-01-05T14:22:00.301Z,47.46
2018-01-05T14:24:27.974Z,46.65
2018-01-05T14:26:55.559Z,45.88
2018-01-05T14:29:23.318Z,45.83
2018-01-05T14:31:51.040Z,46.02
2018-01-05T14:34:18.756Z,46.24
2018-01-05T14:36:46.482Z,46.42
2018-01-05T14:39:14.050Z,46.83
2018-01-05T14:41:41.695Z,49.07
2018-01-05T14:44:09.289Z,55.28
2018-01-05T14:46:37.084Z,57.12
2018-01-05T14:49:04.902Z,58.95
2018-01-05T14:51:32.512Z,60.14
2018-01-05T14:54:00.134Z,61.11
2018-01-05T14:56:27.747Z,60.30
2018-01-05T14:58:55.314Z,60.45
2018-01-05T15:01:23.091Z,59.91
2018-01-05T15:03:51.125Z,60.87
2018-01-05T15:06:18.810Z,60.79
2018-01-05T15:08:46.386Z,60.71
2018-01-05T15:11:13.964Z,59.61
2018-01-05T15:13:41.575Z,60.19
2018-01-05T15:16:09.150Z,60.17
2018-01-05T15:18:36.979Z,60.84
2018-01-05T15:21:04.560Z,61.39
2018-01-05T15:23:32.140Z,59.99
2018-01-05T15:25:59.748Z,58.74
2018-01-05T15:28:27.320Z,59.56
2018-01-05T15:30:54.955Z,60.14
2018-01-05T15:33:22.727Z,59.21
2018-01-05T15:35:50.306Z,59.77
2018-01-05T15:38:17.899Z,60.15
2018-01-05T15:40:45.466Z,60.56
2018-01-05T15:43:13.173Z,59.96
2018-01-05T15:45:40.807Z,59.99
2018-01-05T15:48:08.382Z,60.89
2018-01-05T15:50:35.983Z,60.86
2018-01-05T15:53:03.661Z,59.56
2018-01-05T15:55:31.298Z,59.65
2018-01-05T15:57:59.006Z,62.94
2018-01-05T16:00:26.578Z,62.48
2018-01-05T16:02:54.202Z,62.86
2018-01-05T16:05:21.774Z,63.22
2018-01-05T16:07:49.406Z,62.59
2018-01-05T16:10:17.000Z,63.26
2018-01-05T16:12:44.714Z,63.92
2018-01-05T16:15:12.424Z,64.16
2018-01-05T16:17:40.045Z,64.49
2018-01-05T16:20:07.722Z,64.88
2018-01-05T16:22:35.488Z,65.49
2018-01-05T16:25:03.079Z,65.19
2018-01-05T16:27:30.682Z,65.10
2018-01-05T16:29:58.430Z,65.29
2018-01-05T16:32:26.150Z,64.36
2018-01-05T16:40:01.955Z,64.14
2018-01-05T16:42:29.626Z,62.07
2018-01-05T16:44:57.275Z,62.68
2018-01-05T16:47:24.859Z,62.76
2018-01-05T16:49:52.486Z,63.20
2018-01-05T16:52:20.054Z,63.40
2018-01-05T16:54:47.865Z,63.11
2018-01-05T16:57:15.508Z,63.16
2018-01-05T16:59:43.075Z,63.40
2018-01-05T17:02:10.638Z,63.71
2018-01-05T17:04:38.387Z,63.35
2018-01-05T17:07:05.971Z,63.52
2018-01-05T17:09:33.532Z,63.00
2018-01-05T17:12:01.180Z,63.51
2018-01-05T17:14:28.750Z,63.32
2018-01-05T17:16:56.492Z,63.75
2018-01-05T17:19:24.190Z,63.18
2018-01-05T17:21:51.778Z,62.83
2018-01-05T17:24:19.374Z,63.04
2018-01-05T17:26:47.151Z,63.04
2018-01-05T17:29:14.727Z,62.65
2018-01-05T17:31:42.534Z,63.28
2018-01-05T17:34:10.355Z,63.41
2018-01-05T17:36:37.938Z,63.36
2018-01-05T17:39:05.542Z,63.52
2018-01-05T17:41:33.407Z,63.60
2018-01-05T17:44:00.971Z,62.83
2018-01-05T17:46:28.743Z,62.47
2018-01-05T17:48:56.408Z,62.71
2018-01-05T17:51:23.988Z,62.48
2018-01-05T17:53:51.563Z,62.06
2018-01-05T17:56:19.201Z,61.44
2018-01-05T17:58:47.022Z,61.92
2018-01-05T18:01:14.611Z,62.05
2018-01-05T18:03:42.429Z,61.60
2018-01-05T18:06:09.991Z,63.03
2018-01-05T18:08:37.807Z,63.26
2018-01-05T18:11:05.587Z,62.87
2018-01-05T18:13:33.162Z,63.98
2018-01-05T18:16:00.751Z,63.83
2018-01-05T18:18:28.583Z,64.54
2018-01-05T18:20:56.178Z,64.75
2018-01-05T18:23:23.735Z,65.11
2018-01-05T18:25:51.362Z,65.45
2018-01-05T18:28:18.950Z,65.11
2018-01-05T18:30:46.554Z,65.94
2018-01-05T18:33:14.202Z,66.29
2018-01-05T18:35:41.781Z,66.85
2018-01-05T18:38:09.346Z,65.90
2018-01-05T18:40:37.340Z,65.74
2018-01-05T18:43:05.159Z,65.65
2018-01-05T18:45:32.890Z,65.74
2018-01-05T18:48:00.514Z,66.11
2018-01-05T18:50:28.091Z,66.21
2018-01-05T18:52:55.723Z,66.56
2018-01-05T18:55:23.350Z,66.51
2018-01-05T18:57:50.914Z,66.82
2018-01-05T19:00:18.657Z,67.29
2018-01-05T19:02:46.431Z,67.41
2018-01-05T19:05:14.006Z,67.76
2018-01-05T19:07:41.619Z,68.23
2018-01-05T19:10:09.299Z,67.88
2018-01-05T19:12:36.870Z,67.78
2018-01-05T19:15:04.693Z,68.30
2018-01-05T19:17:32.473Z,68.29
2018-01-05T19:20:00.061Z,68.63
2018-01-05T19:22:27.850Z,68.25
2018-01-05T19:24:55.669Z,68.21
2018-01-05T19:27:23.386Z,68.65
2018-01-05T19:29:50.962Z,69.11
2018-01-05T19:32:18.709Z,69.39
2018-01-05T19:34:46.539Z,69.71
2018-01-05T19:37:14.119Z,69.67
2018-01-05T19:39:41.757Z,69.88
2018-01-05T19:42:09.585Z,70.00
2018-01-05T19:44:37.163Z,69.91
2018-01-05T19:47:05.033Z,70.31
2018-01-05T19:49:32.604Z,69.62
2018-01-05T19:52:00.170Z,69.26
2018-01-05T19:54:27.987Z,69.10
2018-01-05T19:56:55.563Z,68.24
2018-01-05T19:59:23.138Z,68.78
2018-01-05T20:01:50.892Z,69.03
2018-01-05T20:04:18.660Z,68.54
2018-01-05T20:06:46.475Z,68.54
2018-01-05T20:09:14.296Z,68.80
2018-01-05T20:11:41.870Z,68.87
2018-01-05T20:14:09.436Z,67.89
2018-01-05T20:16:37.032Z,67.52
2018-01-05T20:19:04.602Z,67.40
2018-01-05T20:21:32.168Z,67.28
2018-01-05T20:24:00.005Z,67.35
2018-01-05T20:26:27.590Z,67.59
2018-01-05T20:28:55.322Z,68.95
2018-01-05T20:31:22.950Z,69.32
2018-01-05T20:33:50.546Z,68.92
2018-01-05T20:36:18.120Z,68.93
2018-01-05T20:38:45.910Z,69.43
2018-01-05T20:41:13.473Z,69.50
2018-01-05T20:43:41.248Z,69.69
2018-01-05T20:46:08.874Z,69.72
2018-01-05T20:48:36.478Z,70.68
2018-01-05T20:51:04.063Z,70.84
2018-01-05T20:53:31.776Z,71.15
2018-01-05T20:55:59.504Z,71.51
2018-01-05T20:58:27.220Z,70.94
2018-01-05T21:00:54.944Z,70.95
2018-01-05T21:03:22.514Z,70.83
2018-01-05T21:05:50.309Z,71.08
2018-01-05T21:08:17.946Z,71.57
2018-01-05T21:10:45.526Z,71.99
2018-01-05T21:13:13.095Z,72.54
2018-01-05T21:15:40.771Z,72.37
2018-01-05T21:18:08.337Z,72.63
2018-01-05T21:20:35.906Z,72.29
2018-01-05T21:23:03.591Z,72.80
2018-01-05T21:25:31.162Z,72.33
2018-01-05T21:27:58.745Z,72.18
2018-01-05T21:30:26.588Z,72.54
2018-01-05T21:32:54.433Z,72.21
2018-01-05T21:35:22.224Z,71.75
2018-01-05T21:37:49.842Z,71.52
2018-01-05T21:40:17.403Z,71.36
2018-01-05T21:42:44.968Z,71.28
2018-01-05T21:45:12.800Z,71.43
2018-01-05T21:47:40.380Z,71.61
2018-01-05T21:50:07.949Z,72.07
2018-01-05T21:52:35.578Z,72.35
2018-01-05T21:55:03.368Z,71.95
2018-01-05T21:57:30.948Z,71.87
2018-01-05T21:59:58.585Z,72.21
2018-01-05T22:02:26.164Z,72.22
2018-01-05T22:04:53.734Z,72.00
2018-01-05T22:07:21.370Z,71.99
2018-01-05T22:09:49.090Z,73.33
2018-01-05T22:12:16.806Z,73.71
2018-01-05T22:14:44.421Z,73.30
2018-01-05T22:17:11.995Z,72.67
2018-01-05T22:19:39.562Z,72.68
2018-01-05T22:22:07.466Z,72.39
2018-01-05T22:24:35.186Z,71.45
2018-01-05T22:27:02.750Z,71.25
2018-01-05T22:29:30.374Z,72.73
2018-01-05T22:31:58.113Z,71.39
2018-01-05T22:34:25.659Z,71.23
2018-01-05T22:36:53.313Z,74.31
2018-01-05T22:39:20.869Z,74.49
2018-01-05T22:41:48.438Z,74.82
2018-01-05T22:44:16.070Z,75.47
2018-01-05T22:46:43.846Z,75.38
2018-01-05T22:49:11.434Z,75.57
2018-01-05T22:51:39.282Z,75.76
2018-01-05T22:54:06.850Z,75.11
2018-01-05T22:56:34.527Z,74.99
2018-01-05T22:59:02.161Z,75.78
2018-01-05T23:01:29.745Z,76.82
2018-01-05T23:03:57.572Z,76.72
2018-01-05T23:06:25.389Z,76.47
2018-01-05T23:08:52.970Z,76.19
2018-01-05T23:11:20.529Z,76.17
2018-01-05T23:13:48.160Z,77.29
2018-01-05T23:16:15.722Z,76.75
2018-01-05T23:18:43.477Z,77.17
2018-01-05T23:21:11.299Z,78.23
2018-01-05T23:23:39.022Z,78.03
2018-01-05T23:26:06.594Z,78.20
2018-01-05T23:28:34.302Z,78.76
2018-01-05T23:31:02.028Z,79.62
2018-01-05T23:33:29.600Z,78.68
2018-01-05T23:35:57.239Z,78.21
2018-01-05T23:38:24.783Z,77.15
2018-01-05T23:40:52.518Z,77.55
2018-01-05T23:43:20.137Z,78.03
2018-01-05T23:45:47.851Z,78.62
2018-01-05T23:48:15.426Z,78.46
2018-01-05T23:50:43.105Z,77.47
2018-01-05T23:53:10.680Z,78.16
2018-01-05T23:55:38.251Z,77.99
2018-01-05T23:58:05.960Z,77.34
